Time;durP1;ratioP1;P1;durP2;ratioP2;P2;SDS_P1;SDS_P2;PMS_P1;PMS_P2;Temp;Humidity;BMP_temperature;BMP_pressure;BME280_temperature;BME280_humidity;BME280_pressure;Samples;Min_cycle;Max_cycle;Signal;HPM_P1;HPM_P2
2023/10/20 00:00:25;;;;;;;19.80;10.95;;;8.30;99.90;;;;;;5015642;28;20081;-74
2023/10/20 00:02:50;;;;;;;21.35;10.02;;;8.30;99.90;;;;;;5014059;28;20449;-74
2023/10/20 00:05:17;;;;;;;22.67;13.35;;;8.30;99.90;;;;;;5015469;28;20046;-73
2023/10/20 00:07:43;;;;;;;19.90;9.93;;;8.30;99.90;;;;;;5014901;28;20054;-73
2023/10/20 00:10:09;;;;;;;19.08;10.38;;;8.30;99.90;;;;;;5014852;28;20049;-73
2023/10/20 00:12:35;;;;;;;18.80;9.98;;;8.30;99.90;;;;;;5013629;28;20478;-74
2023/10/20 00:15:01;;;;;;;19.80;10.98;;;8.30;99.90;;;;;;5014877;28;20048;-74
2023/10/20 00:17:27;;;;;;;17.63;10.15;;;8.30;99.90;;;;;;5015284;28;20117;-74
2023/10/20 00:19:53;;;;;;;19.33;10.15;;;8.30;99.90;;;;;;5014728;28;20049;-73
2023/10/20 00:22:19;;;;;;;19.13;10.25;;;8.30;99.90;;;;;;5014730;28;20148;-73
2023/10/20 00:24:45;;;;;;;20.65;10.45;;;8.30;99.90;;;;;;5014675;28;20046;-73
2023/10/20 00:27:13;;;;;;;18.48;10.20;;;8.20;99.90;;;;;;5014579;28;20050;-73
2023/10/20 00:29:40;;;;;;;19.90;10.13;;;8.20;99.90;;;;;;5013533;28;20139;-74
2023/10/20 00:32:07;;;;;;;23.10;11.20;;;8.30;99.90;;;;;;5014505;28;20053;-74
2023/10/20 00:34:33;;;;;;;19.27;9.50;;;8.20;99.90;;;;;;5014352;28;20053;-74
2023/10/20 00:36:58;;;;;;;21.90;10.63;;;8.20;99.90;;;;;;5014004;28;20053;-74
2023/10/20 00:39:24;;;;;;;18.52;9.90;;;8.20;99.90;;;;;;4997966;28;20048;-73
2023/10/20 00:41:50;;;;;;;23.85;10.45;;;8.20;99.90;;;;;;5014341;28;20046;-73
2023/10/20 00:44:15;;;;;;;27.88;11.45;;;8.20;99.90;;;;;;5013094;28;20050;-73
2023/10/20 00:46:45;;;;;;;20.92;10.20;;;8.20;99.90;;;;;;5014405;28;20046;-73
2023/10/20 00:49:11;;;;;;;24.13;10.90;;;8.20;99.90;;;;;;5014180;28;20133;-74
2023/10/20 00:51:39;;;;;;;25.17;10.60;;;8.20;99.90;;;;;;5014647;28;20054;-74
2023/10/20 00:54:06;;;;;;;19.48;10.10;;;8.20;99.90;;;;;;5015174;28;20390;-74
2023/10/20 00:56:32;;;;;;;19.08;10.25;;;8.20;99.90;;;;;;5014192;28;20046;-74
2023/10/20 00:59:00;;;;;;;19.08;10.52;;;8.20;99.90;;;;;;5014150;28;20462;-74
2023/10/20 01:01:25;;;;;;;19.05;10.07;;;8.20;99.90;;;;;;5014416;28;20100;-73
2023/10/20 01:03:51;;;;;;;20.27;10.77;;;8.20;99.90;;;;;;5014096;28;20054;-73
2023/10/20 01:06:17;;;;;;;26.38;11.73;;;8.20;99.90;;;;;;5014050;28;20379;-73
2023/10/20 01:08:43;;;;;;;20.88;10.73;;;8.20;99.90;;;;;;5014039;28;20120;-74
2023/10/20 01:11:09;;;;;;;23.63;11.13;;;8.20;99.90;;;;;;5014244;28;20096;-74
2023/10/20 01:13:36;;;;;;;20.60;10.68;;;8.20;99.90;;;;;;5012718;28;20046;-73
2023/10/20 01:16:03;;;;;;;20.48;10.43;;;8.20;99.90;;;;;;5013917;28;20060;-74
2023/10/20 01:18:28;;;;;;;22.17;11.18;;;8.10;99.90;;;;;;5013854;28;20137;-73
2023/10/20 01:20:54;;;;;;;26.00;11.77;;;8.20;99.90;;;;;;5013798;28;20085;-73
2023/10/20 01:23:20;;;;;;;18.23;10.13;;;8.10;99.90;;;;;;5013816;28;20046;-73
2023/10/20 01:25:46;;;;;;;30.38;11.40;;;8.20;99.90;;;;;;5013723;28;20060;-73
2023/10/20 01:28:12;;;;;;;18.92;10.98;;;8.10;99.90;;;;;;5014607;28;20072;-73
2023/10/20 01:30:38;;;;;;;20.92;10.45;;;8.10;99.90;;;;;;5013739;28;20482;-73
2023/10/20 01:33:04;;;;;;;21.73;10.48;;;8.10;99.90;;;;;;5013440;28;20056;-73
2023/10/20 01:35:29;;;;;;;24.02;10.90;;;8.10;99.90;;;;;;5013736;28;20471;-73
2023/10/20 01:37:55;;;;;;;21.15;10.40;;;8.10;99.90;;;;;;5012561;28;20108;-73
2023/10/20 01:40:21;;;;;;;20.50;11.10;;;8.10;99.90;;;;;;5012496;28;20046;-73
2023/10/20 01:42:47;;;;;;;22.17;11.10;;;8.10;99.90;;;;;;5013550;28;20486;-73
2023/10/20 01:45:13;;;;;;;21.63;10.57;;;8.10;99.90;;;;;;5012482;28;20088;-73
2023/10/20 01:47:38;;;;;;;19.42;10.70;;;8.10;99.90;;;;;;5014163;28;20046;-73
2023/10/20 01:50:04;;;;;;;19.48;10.77;;;8.10;99.90;;;;;;5014730;28;20083;-73
2023/10/20 01:52:30;;;;;;;21.73;11.10;;;8.10;99.90;;;;;;5016645;28;20518;-73
2023/10/20 01:54:58;;;;;;;23.10;10.93;;;8.10;99.90;;;;;;5017530;28;20064;-73
2023/10/20 01:57:23;;;;;;;21.27;12.30;;;8.10;99.90;;;;;;5017328;28;20054;-73
2023/10/20 01:59:49;;;;;;;18.27;10.45;;;8.10;99.90;;;;;;5017210;28;20077;-73
2023/10/20 02:02:15;;;;;;;24.10;11.20;;;8.10;99.90;;;;;;5017324;28;20085;-73
2023/10/20 02:04:41;;;;;;;17.42;9.55;;;8.10;99.90;;;;;;5017241;28;20050;-73
2023/10/20 02:07:07;;;;;;;20.20;11.43;;;8.10;99.90;;;;;;5016938;28;20061;-73
2023/10/20 02:09:33;;;;;;;19.25;11.25;;;8.10;99.90;;;;;;5017594;28;20095;-73
2023/10/20 02:11:59;;;;;;;21.00;11.00;;;8.10;99.90;;;;;;5017082;28;20041;-73
2023/10/20 02:14:25;;;;;;;20.40;10.90;;;8.10;99.90;;;;;;5017904;28;20048;-73
2023/10/20 02:16:52;;;;;;;18.48;10.35;;;8.10;99.90;;;;;;5016892;28;20049;-73
2023/10/20 02:19:17;;;;;;;20.08;11.30;;;8.10;99.90;;;;;;5016068;28;20095;-73
2023/10/20 02:21:43;;;;;;;19.00;10.50;;;8.10;99.90;;;;;;5016929;28;20124;-72
2023/10/20 02:24:09;;;;;;;18.65;10.82;;;8.10;99.90;;;;;;5015683;28;20057;-73
2023/10/20 02:26:35;;;;;;;19.92;10.40;;;8.10;99.90;;;;;;5017552;28;20052;-72
2023/10/20 02:29:01;;;;;;;18.83;10.05;;;8.10;99.90;;;;;;5016173;28;20207;-73
2023/10/20 02:31:27;;;;;;;19.92;10.43;;;8.10;99.90;;;;;;5017601;28;20158;-73
2023/10/20 02:33:52;;;;;;;18.70;10.80;;;8.10;99.90;;;;;;5016618;28;20136;-73
2023/10/20 02:36:22;;;;;;;19.23;10.38;;;8.10;99.90;;;;;;5015697;28;20061;-73
2023/10/20 02:38:53;;;;;;;17.80;9.30;;;8.10;99.90;;;;;;5016530;28;20056;-73
2023/10/20 02:41:19;;;;;;;20.88;10.43;;;8.00;99.90;;;;;;5016526;28;20068;-78
2023/10/20 02:43:45;;;;;;;20.52;9.98;;;8.10;99.90;;;;;;5016290;28;20525;-79
2023/10/20 02:46:15;;;;;;;17.67;9.80;;;8.00;99.90;;;;;;5016391;28;20471;-80
2023/10/20 02:48:41;;;;;;;22.15;11.73;;;8.00;99.90;;;;;;5016234;28;20518;-77
2023/10/20 02:51:11;;;;;;;19.98;10.07;;;8.00;99.90;;;;;;5015482;28;20054;-78
2023/10/20 02:53:40;;;;;;;17.98;10.40;;;8.10;99.90;;;;;;5016238;28;20065;-78
2023/10/20 02:56:24;;;;;;;20.35;10.25;;;8.00;99.90;;;;;;5015040;28;20137;-79
2023/10/20 02:58:50;;;;;;;16.17;9.60;;;8.00;99.90;;;;;;5016405;28;20050;-77
2023/10/20 03:01:17;;;;;;;17.77;9.85;;;8.00;99.90;;;;;;5015764;28;20068;-77
2023/10/20 03:03:46;;;;;;;17.42;9.15;;;8.00;99.90;;;;;;5016029;28;20132;-79
2023/10/20 03:06:12;;;;;;;17.63;9.25;;;8.00;99.90;;;;;;5015177;28;20142;-77
2023/10/20 03:08:39;;;;;;;17.75;9.82;;;8.00;99.90;;;;;;5015997;28;20137;-78
2023/10/20 03:11:06;;;;;;;16.45;9.10;;;8.00;99.90;;;;;;5015036;28;20504;-78
2023/10/20 03:13:32;;;;;;;19.45;10.00;;;8.00;99.90;;;;;;5016373;28;20124;-79
2023/10/20 03:15:58;;;;;;;16.10;9.23;;;8.00;99.90;;;;;;5015870;28;20129;-80
2023/10/20 03:18:23;;;;;;;16.38;9.27;;;8.00;99.90;;;;;;5015645;28;20056;-78
2023/10/20 03:20:50;;;;;;;18.33;9.68;;;8.00;99.90;;;;;;5016404;28;20048;-80
2023/10/20 03:23:18;;;;;;;15.40;9.48;;;8.00;99.90;;;;;;5015811;28;20088;-78
2023/10/20 03:25:44;;;;;;;15.60;9.02;;;7.90;99.90;;;;;;5015610;28;20081;-79
2023/10/20 03:28:09;;;;;;;16.58;9.55;;;7.90;99.90;;;;;;5014699;28;20096;-79
2023/10/20 03:30:39;;;;;;;15.45;8.98;;;8.00;99.90;;;;;;5014601;28;20125;-79
2023/10/20 03:33:10;;;;;;;14.52;9.43;;;7.90;99.90;;;;;;4997740;28;20050;-77
2023/10/20 03:35:36;;;;;;;16.50;9.75;;;7.90;99.90;;;;;;5014968;28;20045;-79
2023/10/20 03:38:03;;;;;;;14.43;8.30;;;7.90;99.90;;;;;;5014632;28;20382;-79
2023/10/20 03:40:36;;;;;;;14.27;9.45;;;7.90;99.90;;;;;;5015525;28;20104;-80
2023/10/20 03:43:08;;;;;;;16.42;9.75;;;7.90;99.90;;;;;;4999482;28;20054;-78
2023/10/20 03:45:51;;;;;;;16.67;9.40;;;7.90;99.90;;;;;;5015468;28;20137;-77
2023/10/20 03:48:19;;;;;;;15.77;8.68;;;7.90;99.90;;;;;;5014701;28;20108;-78
2023/10/20 03:50:46;;;;;;;17.77;9.43;;;7.90;99.90;;;;;;5014191;28;20052;-80
2023/10/20 03:53:18;;;;;;;15.50;8.30;;;7.90;99.90;;;;;;4997597;28;20104;-78
2023/10/20 03:55:45;;;;;;;14.60;8.27;;;7.90;99.90;;;;;;5014647;28;20042;-81
2023/10/20 03:58:11;;;;;;;13.48;8.20;;;7.90;99.90;;;;;;5015226;28;20105;-80
2023/10/20 04:00:41;;;;;;;16.02;8.18;;;7.90;99.90;;;;;;5014226;28;20455;-80
2023/10/20 04:03:08;;;;;;;16.13;8.45;;;7.90;99.90;;;;;;5013939;28;20053;-80
2023/10/20 04:05:34;;;;;;;15.48;8.93;;;7.90;99.90;;;;;;5015016;28;20128;-79
2023/10/20 04:07:59;;;;;;;14.70;8.75;;;7.80;99.90;;;;;;5015046;28;20155;-78
2023/10/20 04:10:25;;;;;;;18.67;8.60;;;7.90;99.90;;;;;;5014123;28;20062;-81
2023/10/20 04:12:52;;;;;;;17.17;8.85;;;7.80;99.90;;;;;;5014100;28;20399;-79
2023/10/20 04:15:25;;;;;;;18.15;9.55;;;7.80;99.90;;;;;;5013830;28;20060;-79
2023/10/20 04:17:55;;;;;;;14.07;8.57;;;7.90;99.90;;;;;;4998835;28;20045;-78
2023/10/20 04:20:23;;;;;;;16.15;8.10;;;7.80;99.90;;;;;;5015337;28;20050;-79
2023/10/20 04:22:49;;;;;;;16.52;9.23;;;7.90;99.90;;;;;;5013700;28;20050;-83
2023/10/20 04:25:19;;;;;;;13.55;8.23;;;7.80;99.90;;;;;;4981585;28;20049;-80
2023/10/20 04:28:32;;;;;;;16.17;8.70;;;7.90;99.90;;;;;;5013632;28;20494;-82
2023/10/20 05:02:46;;;;;;;15.18;8.52;;;7.80;99.90;;;;;;5012844;28;20522;-81
2023/10/20 05:05:34;;;;;;;16.92;8.07;;;7.80;99.90;;;;;;5013031;28;20050;-81
2023/10/20 05:10:38;;;;;;;13.70;7.80;;;7.80;99.90;;;;;;5013258;28;20145;-81
2023/10/20 05:13:04;;;;;;;12.95;8.18;;;7.80;99.90;;;;;;5014181;28;20132;-81
2023/10/20 05:15:38;;;;;;;14.07;7.70;;;7.80;99.90;;;;;;4997223;28;20505;-81
2023/10/20 05:18:05;;;;;;;12.10;8.35;;;7.80;99.90;;;;;;5013313;28;20103;-81
2023/10/20 05:20:34;;;;;;;11.82;7.38;;;7.80;99.90;;;;;;5012670;28;20054;-81
2023/10/20 05:23:00;;;;;;;12.32;8.25;;;7.70;99.90;;;;;;5013675;28;20038;-79
2023/10/20 05:25:26;;;;;;;12.07;8.02;;;7.80;99.90;;;;;;5013091;28;20041;-82
2023/10/20 05:27:51;;;;;;;13.40;8.02;;;7.70;99.90;;;;;;5013797;28;20042;-82
2023/10/20 05:30:17;;;;;;;13.57;7.57;;;7.70;99.90;;;;;;5014993;28;20050;-80
2023/10/20 05:32:43;;;;;;;12.48;7.35;;;7.70;99.90;;;;;;5015002;28;20050;-81
2023/10/20 05:35:09;;;;;;;10.93;7.15;;;7.70;99.90;;;;;;5013902;28;20050;-80
2023/10/20 05:37:35;;;;;;;13.32;7.10;;;7.70;99.90;;;;;;5013729;28;20046;-79
2023/10/20 05:40:02;;;;;;;13.32;8.30;;;7.70;99.90;;;;;;5013407;28;20045;-80
2023/10/20 05:42:28;;;;;;;11.70;6.90;;;7.70;99.90;;;;;;4996648;28;20188;-80
2023/10/20 05:45:03;;;;;;;13.13;6.60;;;7.70;99.90;;;;;;5013430;28;20058;-82
2023/10/20 05:47:30;;;;;;;9.70;6.88;;;7.70;99.90;;;;;;4996493;28;20072;-80
2023/10/20 05:49:57;;;;;;;10.93;6.82;;;7.70;99.90;;;;;;5013574;28;20445;-81
2023/10/20 05:52:22;;;;;;;12.75;7.38;;;7.70;99.90;;;;;;5012438;28;20398;-80
2023/10/20 05:54:49;;;;;;;9.68;6.32;;;7.70;99.90;;;;;;5013634;28;20137;-81
2023/10/20 05:57:16;;;;;;;9.55;6.03;;;7.70;99.90;;;;;;5012266;28;20519;-81
2023/10/20 05:59:42;;;;;;;10.00;6.25;;;7.70;99.90;;;;;;5012290;28;20494;-80
2023/10/20 06:02:08;;;;;;;10.07;6.00;;;7.70;99.90;;;;;;4996161;28;20049;-79
2023/10/20 06:04:34;;;;;;;9.57;6.50;;;7.60;99.90;;;;;;5012512;28;20042;-81
2023/10/20 06:07:01;;;;;;;8.77;6.10;;;7.60;99.90;;;;;;5013517;28;20056;-81
2023/10/20 06:09:28;;;;;;;8.65;5.57;;;7.60;99.90;;;;;;5012522;28;20053;-79
2023/10/20 06:11:53;;;;;;;11.10;6.05;;;7.60;99.90;;;;;;5013109;28;20562;-81
2023/10/20 06:14:23;;;;;;;9.60;5.82;;;7.60;99.90;;;;;;5013229;28;20128;-67
2023/10/20 06:16:50;;;;;;;10.75;6.25;;;7.60;99.90;;;;;;5012934;28;20521;-67
2023/10/20 06:19:15;;;;;;;9.57;5.80;;;7.60;99.90;;;;;;5013429;28;20049;-67
2023/10/20 06:21:45;;;;;;;8.50;6.18;;;7.60;99.90;;;;;;5013801;28;20095;-67
2023/10/20 06:24:11;;;;;;;9.63;5.28;;;7.60;99.90;;;;;;5012729;28;20487;-67
2023/10/20 06:26:36;;;;;;;9.43;5.45;;;7.60;99.90;;;;;;5013349;28;20042;-67
2023/10/20 06:29:02;;;;;;;8.75;5.35;;;7.60;99.90;;;;;;5013273;28;20510;-67
2023/10/20 06:34:09;;;;;;;9.88;5.45;;;7.60;99.90;;;;;;5013378;28;20050;-68
2023/10/20 06:36:34;;;;;;;7.97;5.47;;;7.60;99.90;;;;;;5016701;28;20371;-67
2023/10/20 06:39:03;;;;;;;9.40;5.68;;;7.60;99.90;;;;;;5016734;28;20049;-67
2023/10/20 06:41:29;;;;;;;9.05;5.25;;;7.60;99.90;;;;;;5016472;28;20104;-67
2023/10/20 06:43:55;;;;;;;8.50;5.20;;;7.70;99.90;;;;;;5016643;28;20470;-67
2023/10/20 06:46:22;;;;;;;6.65;4.43;;;7.70;99.90;;;;;;5016487;28;20050;-67
2023/10/20 06:48:48;;;;;;;8.40;4.93;;;7.60;99.90;;;;;;5016786;28;20096;-67
2023/10/20 06:51:14;;;;;;;8.68;5.22;;;7.70;99.90;;;;;;5016439;28;20046;-67
2023/10/20 06:53:39;;;;;;;9.32;4.55;;;7.70;99.90;;;;;;5016091;28;20104;-67
2023/10/20 06:56:09;;;;;;;8.57;5.10;;;7.70;99.90;;;;;;5016344;28;20089;-67
2023/10/20 06:58:34;;;;;;;8.65;5.32;;;7.70;99.90;;;;;;5016616;28;20050;-67
2023/10/20 07:01:05;;;;;;;8.32;4.78;;;7.70;99.90;;;;;;5016764;28;20128;-67
2023/10/20 07:03:32;;;;;;;7.38;5.03;;;7.70;99.90;;;;;;5016146;28;20046;-67
2023/10/20 07:06:01;;;;;;;8.65;5.53;;;7.70;99.90;;;;;;5016218;28;20469;-67
2023/10/20 07:08:27;;;;;;;11.32;5.85;;;7.70;99.90;;;;;;5015656;28;20494;-67
2023/10/20 07:10:53;;;;;;;8.40;5.50;;;7.70;99.90;;;;;;5016379;28;20125;-68
2023/10/20 07:13:18;;;;;;;9.27;5.43;;;7.70;99.90;;;;;;5015322;28;20046;-67
2023/10/20 07:15:44;;;;;;;9.75;5.50;;;7.70;99.90;;;;;;5016535;28;20061;-67
2023/10/20 07:18:13;;;;;;;8.63;5.63;;;7.70;99.90;;;;;;5015308;28;20045;-67
2023/10/20 07:20:39;;;;;;;9.70;5.88;;;7.70;99.90;;;;;;4998146;28;20049;-67
2023/10/20 07:23:08;;;;;;;7.60;5.93;;;7.70;99.90;;;;;;5015082;28;20056;-78
2023/10/20 07:25:34;;;;;;;9.13;5.30;;;7.70;99.90;;;;;;5014365;28;20041;-80
2023/10/20 07:28:00;;;;;;;9.00;5.15;;;7.70;99.90;;;;;;5015242;28;20048;-80
2023/10/20 07:30:29;;;;;;;8.13;4.95;;;7.70;99.90;;;;;;5015466;28;20081;-84
2023/10/20 07:32:55;;;;;;;7.78;4.45;;;7.70;99.90;;;;;;5014354;28;20046;-81
2023/10/20 07:35:21;;;;;;;7.72;4.78;;;7.70;99.90;;;;;;5015203;28;20133;-81
2023/10/20 07:37:47;;;;;;;8.82;4.55;;;7.70;99.90;;;;;;5015320;28;20104;-81
2023/10/20 07:40:13;;;;;;;5.90;4.10;;;7.70;99.90;;;;;;4997876;28;20058;-81
2023/10/20 07:42:39;;;;;;;7.65;4.70;;;7.70;99.90;;;;;;4998880;28;20053;-82
2023/10/20 07:45:10;;;;;;;6.43;4.35;;;7.70;99.90;;;;;;4998365;28;20054;-81
2023/10/20 07:47:36;;;;;;;5.80;3.70;;;7.70;99.90;;;;;;4997304;28;20089;-83
2023/10/20 07:50:03;;;;;;;4.38;3.30;;;7.70;99.90;;;;;;4998581;28;20104;-81
2023/10/20 07:52:29;;;;;;;5.25;3.70;;;7.70;99.90;;;;;;5014959;28;20100;-78
2023/10/20 07:54:55;;;;;;;6.78;3.83;;;7.70;99.90;;;;;;4998494;28;20066;-85
2023/10/20 07:57:22;;;;;;;7.03;4.47;;;7.70;99.90;;;;;;5014197;28;20145;-79
2023/10/20 07:59:48;;;;;;;4.65;3.00;;;7.70;99.90;;;;;;5014869;28;20049;-81
2023/10/20 08:02:14;;;;;;;5.20;3.38;;;7.70;99.90;;;;;;4997782;28;20049;-80
2023/10/20 08:04:42;;;;;;;4.97;3.67;;;7.70;99.90;;;;;;4997740;28;20077;-78
2023/10/20 08:07:11;;;;;;;5.15;3.13;;;7.70;99.90;;;;;;4997647;28;20053;-79
2023/10/20 08:09:37;;;;;;;3.78;2.63;;;7.70;99.90;;;;;;5014128;28;20061;-79
2023/10/20 08:12:03;;;;;;;4.10;2.72;;;7.60;99.90;;;;;;5014659;28;20156;-79
2023/10/20 08:14:30;;;;;;;4.75;2.78;;;7.60;99.90;;;;;;5013884;28;20050;-83
2023/10/20 08:16:56;;;;;;;5.38;2.75;;;7.60;99.90;;;;;;5013469;28;20124;-82
2023/10/20 08:19:22;;;;;;;4.00;2.55;;;7.70;99.90;;;;;;4997128;28;20141;-81
2023/10/20 08:21:47;;;;;;;4.65;2.60;;;7.60;99.90;;;;;;5013293;28;20085;-78
2023/10/20 08:24:14;;;;;;;4.32;2.38;;;7.70;99.90;;;;;;5014732;28;20049;-80
2023/10/20 08:26:40;;;;;;;3.92;2.80;;;7.60;99.90;;;;;;5014465;28;20140;-80
2023/10/20 08:29:12;;;;;;;3.60;2.17;;;7.60;99.90;;;;;;5013687;28;20176;-80
2023/10/20 08:31:41;;;;;;;3.58;2.25;;;7.70;99.90;;;;;;5014115;28;20065;-82
2023/10/20 08:34:07;;;;;;;4.18;2.10;;;7.60;99.90;;;;;;5014806;28;20064;-80
2023/10/20 08:36:32;;;;;;;2.88;1.95;;;7.60;99.90;;;;;;4996997;28;20482;-84
2023/10/20 08:39:05;;;;;;;2.35;1.70;;;7.60;99.90;;;;;;5014467;28;20050;-80
2023/10/20 08:41:30;;;;;;;3.80;1.90;;;7.60;99.90;;;;;;5014338;28;20055;-79
2023/10/20 08:43:56;;;;;;;3.08;1.73;;;7.60;99.90;;;;;;5013184;28;20068;-80
2023/10/20 08:46:23;;;;;;;3.35;2.10;;;7.60;99.90;;;;;;5013185;28;20060;-81
2023/10/20 08:48:49;;;;;;;5.03;1.92;;;7.60;99.90;;;;;;4997975;28;20176;-80
2023/10/20 08:51:17;;;;;;;3.03;1.73;;;7.60;99.90;;;;;;5013546;28;20408;-80
2023/10/20 08:53:44;;;;;;;2.75;1.60;;;7.60;99.90;;;;;;5014121;28;20414;-81
2023/10/20 08:56:11;;;;;;;2.65;1.70;;;7.60;99.90;;;;;;5013010;28;20050;-79
2023/10/20 08:58:38;;;;;;;3.78;1.90;;;7.60;99.90;;;;;;5013368;28;20117;-79
2023/10/20 09:01:05;;;;;;;2.78;1.80;;;7.60;99.90;;;;;;5012654;28;20506;-79
2023/10/20 09:03:45;;;;;;;3.45;1.80;;;7.50;99.90;;;;;;5014130;28;20394;-80
2023/10/20 09:06:14;;;;;;;2.38;1.30;;;7.50;99.90;;;;;;4996917;28;20054;-80
2023/10/20 09:08:41;;;;;;;2.75;1.52;;;7.60;99.90;;;;;;4996405;28;20089;-80
2023/10/20 09:11:11;;;;;;;2.13;1.40;;;7.50;99.90;;;;;;5014045;28;20054;-80
2023/10/20 09:13:40;;;;;;;2.35;1.40;;;7.50;99.90;;;;;;5013827;28;20046;-80
2023/10/20 09:16:13;;;;;;;2.35;1.48;;;7.50;99.90;;;;;;5014418;28;20053;-80
2023/10/20 09:18:45;;;;;;;1.80;1.10;;;7.50;99.90;;;;;;5013786;28;20056;-79
2023/10/20 09:21:15;;;;;;;2.00;1.35;;;7.50;99.90;;;;;;5012772;28;20144;-81
2023/10/20 09:23:54;;;;;;;2.42;1.40;;;7.50;99.90;;;;;;4997275;28;20080;-81
2023/10/20 09:26:20;;;;;;;1.90;1.10;;;7.50;99.90;;;;;;5013686;28;20463;-80
2023/10/20 09:28:50;;;;;;;4.20;1.30;;;7.50;99.90;;;;;;5012993;28;20072;-79
2023/10/20 09:31:19;;;;;;;2.20;1.38;;;7.50;99.90;;;;;;5012998;28;20391;-79
2023/10/20 09:33:45;;;;;;;2.50;1.65;;;7.50;99.90;;;;;;5012273;28;20093;-76
2023/10/20 09:36:12;;;;;;;2.55;1.75;;;7.50;99.90;;;;;;4996180;28;20108;-78
2023/10/20 09:38:38;;;;;;;2.22;1.55;;;7.50;99.90;;;;;;5013473;28;20050;-81
2023/10/20 09:41:15;;;;;;;1.80;1.20;;;7.50;99.90;;;;;;4980108;28;20056;-80
2023/10/20 09:44:00;;;;;;;1.90;1.20;;;7.50;99.90;;;;;;4996318;28;20513;-82
2023/10/20 09:46:41;;;;;;;2.05;1.15;;;7.40;99.90;;;;;;5012962;28;20054;-81
2023/10/20 09:49:22;;;;;;;1.88;1.38;;;7.40;99.90;;;;;;5012544;28;20053;-81
2023/10/20 09:51:49;;;;;;;1.70;1.00;;;7.40;99.90;;;;;;4996126;28;20049;-79
2023/10/20 09:54:30;;;;;;;1.98;1.00;;;7.40;99.90;;;;;;4995821;28;20050;-77
2023/10/20 09:56:57;;;;;;;1.90;1.00;;;7.40;99.90;;;;;;5012958;28;20081;-75
2023/10/20 09:59:25;;;;;;;2.15;1.05;;;7.50;99.90;;;;;;5012772;28;20153;-77
2023/10/20 10:01:56;;;;;;;1.85;1.02;;;7.40;99.90;;;;;;5012727;28;20049;-77
2023/10/20 10:04:28;;;;;;;1.83;1.00;;;7.40;99.90;;;;;;5014060;28;20135;-78
2023/10/20 10:06:55;;;;;;;2.17;1.05;;;7.40;99.90;;;;;;5012689;28;20252;-78
2023/10/20 10:09:21;;;;;;;2.05;1.00;;;7.40;99.90;;;;;;5012326;28;20061;-76
2023/10/20 10:11:48;;;;;;;1.80;1.13;;;7.40;99.90;;;;;;5015413;28;20085;-78
2023/10/20 10:14:19;;;;;;;1.92;0.80;;;7.40;99.90;;;;;;5017619;28;20049;-78
2023/10/20 10:16:53;;;;;;;1.63;0.88;;;7.40;99.90;;;;;;5016080;28;20050;-77
2023/10/20 10:19:21;;;;;;;1.75;0.82;;;7.40;99.90;;;;;;5000043;28;20140;-76
2023/10/20 10:21:56;;;;;;;1.45;0.82;;;7.30;99.90;;;;;;4999619;28;20049;-76
2023/10/20 10:24:23;;;;;;;1.43;0.77;;;7.30;99.90;;;;;;5016316;28;20053;-75
2023/10/20 10:26:53;;;;;;;2.22;0.90;;;7.30;99.90;;;;;;5016456;28;20285;-77
2023/10/20 10:29:40;;;;;;;2.55;1.00;;;7.30;99.90;;;;;;5017407;28;20045;-76
2023/10/20 10:32:12;;;;;;;1.45;0.75;;;7.30;99.90;;;;;;5004547;28;20060;-76
2023/10/20 10:34:42;;;;;;;1.00;0.60;;;7.30;99.90;;;;;;5017947;28;20061;-77
2023/10/20 10:37:08;;;;;;;1.40;0.88;;;7.30;99.90;;;;;;5017178;28;20089;-77
2023/10/20 10:39:34;;;;;;;1.38;0.60;;;7.30;99.90;;;;;;5016223;28;20045;-76
2023/10/20 10:42:03;;;;;;;1.55;0.70;;;7.30;99.90;;;;;;4999176;28;20046;-77
2023/10/20 10:44:36;;;;;;;1.65;0.75;;;7.30;99.90;;;;;;5015755;28;20054;-76
2023/10/20 10:47:16;;;;;;;1.65;0.60;;;7.30;99.90;;;;;;5015476;28;20053;-76
2023/10/20 10:49:47;;;;;;;1.23;0.60;;;7.20;99.90;;;;;;5015342;28;20125;-76
2023/10/20 10:52:13;;;;;;;1.20;0.68;;;7.30;99.90;;;;;;5016681;28;20364;-77
2023/10/20 10:54:39;;;;;;;1.20;0.60;;;7.30;99.90;;;;;;5016148;28;20053;-75
2023/10/20 10:57:05;;;;;;;1.25;0.70;;;7.30;99.90;;;;;;5015045;28;20465;-76
2023/10/20 10:59:31;;;;;;;1.13;0.70;;;7.20;99.90;;;;;;5015051;28;20556;-77
2023/10/20 11:01:57;;;;;;;1.50;0.70;;;7.30;99.90;;;;;;5016230;28;20129;-76
2023/10/20 11:04:24;;;;;;;2.95;0.93;;;7.30;99.90;;;;;;5016031;28;20112;-76
2023/10/20 11:06:50;;;;;;;1.65;1.00;;;7.20;99.90;;;;;;5016209;28;20045;-76
2023/10/20 11:09:27;;;;;;;1.55;0.73;;;7.30;99.90;;;;;;5016073;28;20099;-76
2023/10/20 11:11:53;;;;;;;1.67;0.90;;;7.30;99.90;;;;;;5000702;28;20053;-76
2023/10/20 11:14:20;;;;;;;1.40;0.70;;;7.20;99.90;;;;;;5016040;28;20049;-75
2023/10/20 11:16:47;;;;;;;1.33;0.70;;;7.20;99.90;;;;;;5015001;28;20517;-75
2023/10/20 11:19:13;;;;;;;1.40;0.80;;;7.20;99.90;;;;;;5015943;28;20050;-76
2023/10/20 11:21:51;;;;;;;1.23;0.70;;;7.20;99.90;;;;;;4998162;28;20212;-75
2023/10/20 11:24:28;;;;;;;1.20;0.70;;;7.20;99.90;;;;;;5015094;28;20054;-76
2023/10/20 11:27:12;;;;;;;1.42;0.82;;;7.20;99.90;;;;;;5015645;28;20479;-76
2023/10/20 11:29:39;;;;;;;2.30;1.17;;;7.20;99.90;;;;;;5014998;28;20426;-75
2023/10/20 11:32:05;;;;;;;1.30;0.70;;;7.20;99.90;;;;;;5014119;28;20076;-76
2023/10/20 11:34:37;;;;;;;1.20;0.60;;;7.20;99.90;;;;;;4997991;28;20053;-75
2023/10/20 11:37:04;;;;;;;1.23;0.70;;;7.20;99.90;;;;;;5014513;28;20041;-77
2023/10/20 11:39:32;;;;;;;2.00;0.82;;;7.20;99.90;;;;;;4998491;28;20054;-77
2023/10/20 11:41:58;;;;;;;1.10;0.63;;;7.20;99.90;;;;;;5015309;28;20458;-75
2023/10/20 11:44:24;;;;;;;0.82;0.50;;;7.20;99.90;;;;;;5014442;28;20080;-76
2023/10/20 11:46:54;;;;;;;2.03;0.82;;;7.20;99.90;;;;;;5015596;28;20052;-76
2023/10/20 11:49:21;;;;;;;2.45;0.75;;;7.20;99.90;;;;;;5015245;28;20050;-75
2023/10/20 11:51:47;;;;;;;1.08;0.63;;;7.20;99.90;;;;;;5014251;28;20177;-75
2023/10/20 11:54:13;;;;;;;1.30;0.60;;;7.20;99.90;;;;;;5013752;28;20124;-75
2023/10/20 11:56:40;;;;;;;2.00;0.80;;;7.20;99.90;;;;;;5015120;28;20042;-76
2023/10/20 11:59:07;;;;;;;1.02;0.68;;;7.20;99.90;;;;;;5013903;28;20046;-78
2023/10/20 12:01:33;;;;;;;1.30;0.70;;;7.30;99.90;;;;;;5015069;28;20479;-77
2023/10/20 12:03:59;;;;;;;1.30;0.90;;;7.20;99.90;;;;;;5013640;28;20121;-76
2023/10/20 12:06:25;;;;;;;1.50;0.68;;;7.20;99.90;;;;;;5014561;28;20414;-79
2023/10/20 12:08:51;;;;;;;0.93;0.60;;;7.20;99.90;;;;;;5014838;28;20054;-82
2023/10/20 12:11:18;;;;;;;1.50;0.70;;;7.20;99.90;;;;;;5014676;28;20057;-79
2023/10/20 12:13:48;;;;;;;0.82;0.50;;;7.20;99.90;;;;;;5013979;28;20073;-80
2023/10/20 12:16:15;;;;;;;0.75;0.55;;;7.20;99.90;;;;;;5015752;28;20048;-82
2023/10/20 12:18:42;;;;;;;1.92;0.70;;;7.20;99.90;;;;;;5013894;28;20037;-80
2023/10/20 12:21:08;;;;;;;1.23;0.60;;;7.20;99.90;;;;;;5014598;28;20549;-78
2023/10/20 12:23:34;;;;;;;1.00;0.60;;;7.20;99.90;;;;;;4981438;28;20100;-79
2023/10/20 12:26:00;;;;;;;0.73;0.50;;;7.20;99.90;;;;;;4997314;28;20049;-77
2023/10/20 12:28:26;;;;;;;1.80;0.60;;;7.20;99.90;;;;;;5014672;28;20100;-79
2023/10/20 12:30:52;;;;;;;1.25;0.60;;;7.20;99.90;;;;;;5013728;28;20053;-78
2023/10/20 12:33:18;;;;;;;1.10;0.52;;;7.20;99.90;;;;;;5013070;28;20045;-81
2023/10/20 12:35:43;;;;;;;1.20;0.50;;;7.20;99.90;;;;;;4997023;28;20500;-79
2023/10/20 12:38:09;;;;;;;1.05;0.50;;;7.20;99.90;;;;;;5013603;28;20049;-79
2023/10/20 12:40:39;;;;;;;0.65;0.40;;;7.20;99.90;;;;;;5013516;28;20042;-80
2023/10/20 12:43:09;;;;;;;0.85;0.40;;;7.20;99.90;;;;;;5013750;28;20092;-79
2023/10/20 12:45:38;;;;;;;0.88;0.45;;;7.20;99.90;;;;;;4997558;28;20061;-81
2023/10/20 12:48:05;;;;;;;0.93;0.50;;;7.20;99.90;;;;;;5013406;28;20105;-77
2023/10/20 12:50:32;;;;;;;1.05;0.50;;;7.20;99.90;;;;;;5013036;28;20077;-75
2023/10/20 12:53:07;;;;;;;1.35;0.82;;;7.20;99.90;;;;;;5013166;28;20042;-78
2023/10/20 12:55:33;;;;;;;1.80;1.48;;;7.20;99.90;;;;;;5014803;28;20156;-79
2023/10/20 12:57:59;;;;;;;1.30;0.90;;;7.20;99.90;;;;;;4996950;28;20455;-79
2023/10/20 13:00:28;;;;;;;1.10;0.60;;;7.20;99.90;;;;;;4996819;28;20072;-77
2023/10/20 13:02:53;;;;;;;2.30;1.98;;;7.10;99.90;;;;;;5014119;28;20037;-74
2023/10/20 13:05:21;;;;;;;1.90;1.40;;;7.20;99.90;;;;;;5013143;28;20494;-75
2023/10/20 13:07:47;;;;;;;2.30;2.10;;;7.10;99.90;;;;;;5013265;28;20042;-76
2023/10/20 13:10:13;;;;;;;2.25;1.92;;;7.10;99.90;;;;;;5013924;28;20050;-78
2023/10/20 13:12:39;;;;;;;2.53;2.28;;;7.10;99.90;;;;;;5012303;28;20042;-79
2023/10/20 13:15:05;;;;;;;2.05;1.45;;;7.10;99.90;;;;;;5013139;28;20050;-76
2023/10/20 13:17:33;;;;;;;2.58;2.05;;;7.10;99.90;;;;;;4996863;28;20505;-79
2023/10/20 13:20:00;;;;;;;3.63;3.33;;;7.10;99.90;;;;;;4996579;28;20387;-80
2023/10/20 13:22:25;;;;;;;1.40;0.80;;;7.10;99.90;;;;;;4997236;28;20054;-87
2023/10/20 13:24:51;;;;;;;1.60;0.95;;;7.10;99.90;;;;;;4996640;28;20072;-78
2023/10/20 13:27:19;;;;;;;2.97;1.42;;;7.00;99.90;;;;;;5012561;28;20112;-76
2023/10/20 13:29:48;;;;;;;1.52;0.60;;;7.00;99.90;;;;;;5012642;28;20093;-80